Fallston, North Carolina
Current Conditions -  °F | °C
As of 7:15 PM on Tuesday 25 Nov 2014 (Local Time) from KEHO Reporting Station
Scattered Clouds Scattered Clouds  
Wind Chill: 52°   Ceiling: Unl
Heat Index: 52°   Visibility: 10mi
Dew Point: 39°   Wind: 0mph
Humidity: 61%   Direction: NA
Pressure: 30.07"   Gusts: NA
Location:  35.43°N, 81.5°W
Report Text: KEHO 260015Z AUTO 00000KT 10SM SCT110 11/04 A3007 RMK AO2 T01130040
Loading
Personal Weather Stations






























Interactive Weather Map New forecast layout! Learn more

10-Day Weather Forecast

Advertisements
Track Severe Weather on mobile